Time;durP1;ratioP1;P1;durP2;ratioP2;P2;SDS_P1;SDS_P2;PMS_P1;PMS_P2;Temp;Humidity;BMP_temperature;BMP_pressure;BME280_temperature;BME280_humidity;BME280_pressure;Samples;Min_cycle;Max_cycle;Signal;HPM_P1;HPM_P2
2024/01/24 00:00:08;;;;;;;9.82;5.75;;;;;;;2.52;64.68;96027.53;5024363;28;20031;-76
2024/01/24 00:02:33;;;;;;;9.25;6.10;;;;;;;2.54;64.52;96017.13;5025278;28;20464;-76
2024/01/24 00:04:59;;;;;;;9.23;5.93;;;;;;;2.57;64.31;96019.13;5032483;28;20108;-76
2024/01/24 00:07:25;;;;;;;8.65;5.53;;;;;;;2.58;64.03;96024.22;5028855;28;20022;-76
2024/01/24 00:09:50;;;;;;;9.48;5.75;;;;;;;2.54;64.02;96028.00;5026821;28;20026;-75
2024/01/24 00:12:16;;;;;;;8.27;4.95;;;;;;;2.50;64.13;96024.41;5034441;28;20040;-75
2024/01/24 00:14:41;;;;;;;7.95;5.03;;;;;;;2.49;64.16;96033.69;5029682;28;20495;-75
2024/01/24 00:17:07;;;;;;;8.63;5.75;;;;;;;2.50;64.00;96052.34;5031527;28;20460;-75
2024/01/24 00:19:33;;;;;;;9.60;5.43;;;;;;;2.43;64.09;96035.13;5036631;28;20035;-76
2024/01/24 00:21:59;;;;;;;9.95;5.55;;;;;;;2.37;64.27;96046.28;5024346;28;20033;-75
2024/01/24 00:24:24;;;;;;;8.45;6.45;;;;;;;2.35;64.11;96036.91;5024476;28;20099;-77
2024/01/24 00:26:50;;;;;;;8.68;5.43;;;;;;;2.40;63.89;96045.53;5034574;28;20572;-75
2024/01/24 00:29:15;;;;;;;8.65;5.47;;;;;;;2.44;63.86;96053.78;5025090;28;20039;-77
2024/01/24 00:31:41;;;;;;;8.88;5.75;;;;;;;2.48;63.56;96049.22;5032750;28;20025;-77
2024/01/24 00:34:06;;;;;;;8.65;5.85;;;;;;;2.37;63.87;96046.28;5043274;28;20108;-75
2024/01/24 00:36:31;;;;;;;10.77;5.93;;;;;;;2.43;63.72;96049.50;5032034;28;20025;-74
2024/01/24 00:38:57;;;;;;;10.70;6.20;;;;;;;2.33;63.79;96056.25;5043519;28;20403;-74
2024/01/24 00:41:22;;;;;;;9.93;6.25;;;;;;;2.29;63.96;96058.09;5035570;28;20120;-75
2024/01/24 00:43:47;;;;;;;10.13;6.25;;;;;;;2.29;64.06;96055.41;5032540;28;20021;-75
2024/01/24 00:46:13;;;;;;;10.10;6.93;;;;;;;2.19;64.28;96047.84;5043736;28;20421;-74
2024/01/24 00:48:38;;;;;;;9.90;6.22;;;;;;;2.13;64.51;96051.97;5044255;28;20526;-74
2024/01/24 00:51:04;;;;;;;14.40;7.95;;;;;;;2.15;64.44;96059.75;5043876;28;20068;-75
2024/01/24 00:53:29;;;;;;;11.65;7.15;;;;;;;2.13;64.40;96062.81;5052946;28;20051;-74
2024/01/24 00:55:56;;;;;;;10.68;6.32;;;;;;;2.19;64.28;96055.97;5063666;28;20068;-75
2024/01/24 00:58:22;;;;;;;9.55;6.03;;;;;;;2.19;64.21;96055.19;5064734;28;20111;-74
2024/01/24 01:00:47;;;;;;;9.55;6.15;;;;;;;2.13;64.16;96047.34;5064029;28;20135;-74
2024/01/24 01:03:13;;;;;;;9.50;7.07;;;;;;;2.10;64.16;96041.81;5063926;28;20036;-74
2024/01/24 01:05:38;;;;;;;11.95;6.20;;;;;;;2.08;64.48;96044.91;5064182;28;20024;-75
2024/01/24 01:08:05;;;;;;;10.63;6.65;;;;;;;2.10;64.26;96033.69;5063779;28;20036;-75
2024/01/24 01:10:31;;;;;;;14.32;8.07;;;;;;;2.10;64.37;96033.69;5064369;28;20036;-74
2024/01/24 01:12:56;;;;;;;10.80;6.97;;;;;;;2.10;64.21;96029.03;5063235;28;20060;-74
2024/01/24 01:15:21;;;;;;;11.18;6.45;;;;;;;2.13;64.31;96030.28;5046253;28;20030;-76
2024/01/24 01:17:47;;;;;;;9.88;6.88;;;;;;;2.12;64.27;96039.53;5035289;28;20129;-75
2024/01/24 01:20:14;;;;;;;12.27;7.18;;;;;;;2.09;64.41;96043.75;5023885;28;20412;-75
2024/01/24 01:22:40;;;;;;;13.57;7.55;;;;;;;2.10;64.39;96037.19;5031373;28;20031;-75
2024/01/24 01:25:05;;;;;;;12.50;6.45;;;;;;;2.13;64.33;96031.06;5043450;28;20033;-75
2024/01/24 01:27:31;;;;;;;10.40;6.93;;;;;;;2.21;64.30;96042.06;5036883;28;20048;-76
2024/01/24 01:29:56;;;;;;;11.50;7.03;;;;;;;2.10;64.36;96041.81;5029588;28;20116;-75
2024/01/24 01:32:22;;;;;;;10.95;6.32;;;;;;;2.11;64.45;96038.75;5047726;28;20037;-75
2024/01/24 01:34:47;;;;;;;10.85;5.82;;;;;;;2.08;64.44;96039.47;5039157;28;20025;-75
2024/01/24 01:37:12;;;;;;;12.25;6.47;;;;;;;2.12;64.40;96036.81;5027804;28;20029;-75
2024/01/24 01:39:38;;;;;;;10.60;6.20;;;;;;;2.10;64.49;96044.53;5026982;28;20040;-76
2024/01/24 01:42:03;;;;;;;10.88;6.90;;;;;;;2.10;64.48;96044.53;5036332;28;20041;-75
2024/01/24 01:44:29;;;;;;;11.18;6.38;;;;;;;2.12;64.53;96034.09;5030247;28;20029;-74
2024/01/24 01:46:55;;;;;;;12.13;7.65;;;;;;;2.13;64.64;96041.13;5028829;28;20060;-74
2024/01/24 01:49:21;;;;;;;11.25;6.30;;;;;;;2.15;64.53;96043.47;5047708;28;20151;-74
2024/01/24 01:51:47;;;;;;;8.20;6.03;;;;;;;2.15;64.68;96035.34;5046600;28;20053;-74
2024/01/24 01:54:14;;;;;;;10.93;6.38;;;;;;;2.11;64.80;96027.09;5047198;28;20157;-75
2024/01/24 01:56:39;;;;;;;13.35;6.45;;;;;;;2.02;64.78;96019.19;5046783;28;20079;-76
2024/01/24 01:59:05;;;;;;;10.50;6.80;;;;;;;1.97;65.03;96014.03;5043251;28;20087;-74
2024/01/24 02:01:31;;;;;;;12.00;7.07;;;;;;;1.99;64.84;96029.94;5026853;28;20033;-74
2024/01/24 02:03:56;;;;;;;9.57;6.63;;;;;;;1.93;64.84;96017.81;5038687;28;20078;-75
2024/01/24 02:06:22;;;;;;;11.85;5.80;;;;;;;1.91;64.77;96009.25;5029775;28;20114;-75
2024/01/24 02:08:48;;;;;;;11.10;6.03;;;;;;;2.03;64.59;96014.56;5038702;28;20037;-74
2024/01/24 02:11:13;;;;;;;13.00;5.70;;;;;;;1.96;64.94;96014.41;5039006;28;20407;-75
2024/01/24 02:13:39;;;;;;;9.90;5.55;;;;;;;1.99;64.76;96019.88;5026674;28;20021;-75
2024/01/24 02:16:05;;;;;;;9.65;5.80;;;;;;;1.96;64.60;96017.13;5035337;28;20122;-76
2024/01/24 02:18:30;;;;;;;8.13;4.72;;;;;;;1.94;64.17;96020.16;5046011;28;20041;-74
2024/01/24 02:20:56;;;;;;;7.22;4.95;;;;;;;1.81;63.60;95992.38;5046596;28;20021;-74
2024/01/24 02:23:25;;;;;;;7.82;4.95;;;;;;;1.88;63.58;96005.31;5044763;28;20096;-76
2024/01/24 02:25:52;;;;;;;7.75;4.60;;;;;;;1.88;62.95;96010.72;5042861;28;20025;-74
2024/01/24 02:28:18;;;;;;;7.30;4.30;;;;;;;1.86;63.09;96010.31;5026595;28;20044;-74
2024/01/24 02:30:44;;;;;;;9.43;4.65;;;;;;;1.88;62.63;96008.03;5027124;28;20033;-76
2024/01/24 02:33:09;;;;;;;9.77;4.85;;;;;;;1.75;62.97;96004.66;5037165;28;20120;-76
2024/01/24 02:35:35;;;;;;;8.27;4.55;;;;;;;1.76;63.09;96011.63;5025977;28;20166;-75
2024/01/24 02:38:00;;;;;;;8.63;4.70;;;;;;;1.80;63.02;96011.72;5040675;28;20435;-76
2024/01/24 02:40:26;;;;;;;9.68;4.95;;;;;;;1.77;62.74;96001.59;5046196;28;20072;-76
2024/01/24 02:42:51;;;;;;;10.15;5.20;;;;;;;1.79;62.85;96004.75;5045938;28;20052;-75
2024/01/24 02:45:17;;;;;;;9.57;5.15;;;;;;;1.82;62.73;96006.72;5045440;28;20036;-74
2024/01/24 02:47:42;;;;;;;7.78;5.35;;;;;;;1.82;62.68;96004.81;5042524;28;20021;-74
2024/01/24 02:50:08;;;;;;;9.23;5.63;;;;;;;1.92;62.80;96010.81;5030161;28;20108;-75
2024/01/24 02:52:33;;;;;;;9.38;5.57;;;;;;;1.85;63.09;96006.81;5028905;28;20026;-75
2024/01/24 02:54:59;;;;;;;10.38;6.00;;;;;;;1.81;63.44;96003.22;5045593;28;20108;-74
2024/01/24 02:57:24;;;;;;;10.73;6.68;;;;;;;1.83;63.72;96008.28;5044849;28;20040;-76
2024/01/24 02:59:49;;;;;;;11.68;6.60;;;;;;;1.86;64.03;96005.69;5025771;28;20037;-76
2024/01/24 03:02:15;;;;;;;12.57;7.85;;;;;;;1.89;63.87;96011.50;5043704;28;20033;-76
2024/01/24 03:04:40;;;;;;;10.65;6.60;;;;;;;1.80;64.28;96007.09;5045406;28;20462;-75
2024/01/24 03:07:06;;;;;;;12.70;8.10;;;;;;;1.76;64.33;96008.94;5045718;28;20075;-74
2024/01/24 03:09:31;;;;;;;11.73;6.85;;;;;;;1.75;64.46;95999.22;5043085;28;20080;-75
2024/01/24 03:11:56;;;;;;;12.90;7.57;;;;;;;1.73;64.65;96001.53;5038481;28;20033;-75
2024/01/24 03:14:22;;;;;;;12.63;7.35;;;;;;;1.69;64.77;95994.44;5027958;28;20029;-74
2024/01/24 03:16:47;;;;;;;12.75;7.85;;;;;;;1.61;64.98;95985.38;5034708;28;20046;-75
2024/01/24 03:19:13;;;;;;;12.52;7.00;;;;;;;1.66;64.85;95990.50;5025174;28;20171;-74
2024/01/24 03:21:40;;;;;;;10.82;6.40;;;;;;;1.75;64.33;95988.38;5030356;28;20051;-74
2024/01/24 03:24:06;;;;;;;9.63;6.88;;;;;;;1.78;64.32;95982.28;5031200;28;20065;-75
2024/01/24 03:26:31;;;;;;;12.07;6.93;;;;;;;1.76;64.30;95979.09;5025143;28;20068;-75
2024/01/24 03:28:57;;;;;;;12.18;7.38;;;;;;;1.71;64.31;95981.31;5026765;28;20802;-74
2024/01/24 03:31:22;;;;;;;11.65;6.95;;;;;;;1.70;64.11;95983.25;5024459;28;20053;-75
2024/01/24 03:33:47;;;;;;;13.35;7.50;;;;;;;1.69;64.22;95992.50;5025308;28;20478;-75
2024/01/24 03:36:13;;;;;;;11.15;6.68;;;;;;;1.72;64.09;95994.53;5026856;28;20037;-75
2024/01/24 03:38:38;;;;;;;11.68;6.93;;;;;;;1.66;64.17;95995.91;5036193;28;20033;-75
2024/01/24 03:41:04;;;;;;;10.10;6.90;;;;;;;1.68;64.21;96001.00;5026523;28;20060;-75
2024/01/24 03:43:29;;;;;;;12.70;7.72;;;;;;;1.59;64.10;95990.34;5041625;28;20116;-75
2024/01/24 03:45:55;;;;;;;12.60;7.32;;;;;;;1.72;64.19;96009.97;5033925;28;20037;-75
2024/01/24 03:48:20;;;;;;;11.32;6.45;;;;;;;1.77;64.09;95998.88;5044110;28;20454;-75
2024/01/24 03:50:46;;;;;;;11.05;6.45;;;;;;;1.78;64.07;95995.81;5029892;28;20065;-75
2024/01/24 03:53:11;;;;;;;11.93;7.05;;;;;;;1.66;64.30;95990.50;5024036;28;20480;-75
2024/01/24 03:55:36;;;;;;;14.07;6.80;;;;;;;1.62;64.33;95983.44;5025353;28;20021;-75
2024/01/24 03:58:02;;;;;;;12.45;7.22;;;;;;;1.60;64.47;95983.78;5024547;28;20075;-75
2024/01/24 04:00:27;;;;;;;11.63;7.38;;;;;;;1.60;64.57;95979.16;5024516;28;20084;-75
2024/01/24 04:02:53;;;;;;;12.88;7.32;;;;;;;1.60;64.43;95989.19;5039889;28;20029;-75
2024/01/24 04:05:18;;;;;;;12.38;8.20;;;;;;;1.66;64.26;96001.34;5045326;28;20555;-75
2024/01/24 04:07:44;;;;;;;13.63;7.20;;;;;;;1.60;64.29;95998.13;5044927;28;20484;-75
2024/01/24 04:10:10;;;;;;;14.23;8.02;;;;;;;1.65;64.27;96007.91;5040258;28;20030;-74
2024/01/24 04:12:35;;;;;;;14.07;7.95;;;;;;;1.63;64.33;96007.47;5027230;28;20036;-75
2024/01/24 04:15:00;;;;;;;14.68;7.93;;;;;;;1.60;64.52;96013.59;5034038;28;20486;-76
2024/01/24 04:17:26;;;;;;;11.68;7.10;;;;;;;1.63;64.28;96023.75;5033479;28;20052;-75
2024/01/24 04:19:51;;;;;;;14.75;7.57;;;;;;;1.64;64.28;96016.41;5028044;28;20090;-75
2024/01/24 04:22:17;;;;;;;12.70;7.50;;;;;;;1.64;64.28;96019.09;5024231;28;20033;-74
2024/01/24 04:24:42;;;;;;;12.38;7.22;;;;;;;1.61;64.22;96020.63;5026244;28;20546;-75
2024/01/24 04:27:08;;;;;;;12.23;7.25;;;;;;;1.64;64.01;96033.44;5035809;28;20025;-75
2024/01/24 04:29:33;;;;;;;13.20;7.85;;;;;;;1.64;63.89;96035.38;5024894;28;20021;-74
2024/01/24 04:31:59;;;;;;;12.18;7.47;;;;;;;1.66;63.74;96036.59;5032871;28;20875;-75
2024/01/24 04:34:24;;;;;;;13.45;7.72;;;;;;;1.57;63.97;96036.00;5044227;28;20108;-75
2024/01/24 04:36:49;;;;;;;12.57;7.43;;;;;;;1.60;63.85;96038.78;5044219;28;20415;-75
2024/01/24 04:39:15;;;;;;;13.45;7.68;;;;;;;1.64;63.75;96049.72;5042472;28;20037;-75
2024/01/24 04:41:41;;;;;;;12.43;7.85;;;;;;;1.60;63.79;96033.34;5044518;28;20029;-75
2024/01/24 04:44:06;;;;;;;12.73;7.90;;;;;;;1.67;63.74;96032.75;5034979;28;20029;-78
2024/01/24 04:46:31;;;;;;;13.38;7.50;;;;;;;1.52;63.95;96030.84;5024928;28;20022;-77
2024/01/24 04:48:57;;;;;;;12.88;7.50;;;;;;;1.56;64.18;96034.44;5024302;28;20095;-77
2024/01/24 04:51:23;;;;;;;16.83;8.05;;;;;;;1.52;64.36;96044.41;5036418;28;20033;-76
2024/01/24 04:53:50;;;;;;;14.52;7.28;;;;;;;1.51;64.32;96034.69;5024158;28;20037;-76
2024/01/24 04:56:15;;;;;;;12.57;7.43;;;;;;;1.41;64.79;96040.66;5033699;28;20037;-78
2024/01/24 04:58:41;;;;;;;15.10;8.43;;;;;;;1.40;64.70;96048.00;5044219;28;20036;-76
2024/01/24 05:01:06;;;;;;;12.55;7.90;;;;;;;1.50;64.24;96052.09;5039008;28;20036;-78
2024/01/24 05:03:32;;;;;;;17.13;8.57;;;;;;;1.40;64.51;96058.03;5033534;28;20033;-77
2024/01/24 05:05:57;;;;;;;16.08;8.35;;;;;;;1.46;64.33;96062.06;5028899;28;20052;-77
2024/01/24 05:08:23;;;;;;;13.10;8.20;;;;;;;1.15;64.35;96030.31;5031128;28;20029;-76
2024/01/24 05:10:48;;;;;;;14.95;8.25;;;;;;;1.40;64.43;96068.88;5034388;28;20034;-78
2024/01/24 05:13:14;;;;;;;15.63;8.35;;;;;;;1.40;64.35;96079.72;5040608;28;20028;-79
2024/01/24 05:15:40;;;;;;;13.98;7.25;;;;;;;1.48;63.96;96067.91;5044409;28;20426;-79
2024/01/24 05:18:05;;;;;;;13.40;7.43;;;;;;;1.46;64.04;96068.25;5035344;28;20044;-79
2024/01/24 05:20:31;;;;;;;12.68;7.32;;;;;;;1.44;63.95;96081.38;5048386;28;20025;-80
2024/01/24 05:22:56;;;;;;;22.77;7.88;;;;;;;1.43;64.03;96079.00;5035947;28;20494;-78
2024/01/24 05:25:22;;;;;;;10.98;6.85;;;;;;;1.38;64.18;96087.41;5027903;28;20065;-78
2024/01/24 05:27:47;;;;;;;13.13;8.88;;;;;;;1.38;64.28;96080.06;5027156;28;20040;-78
2024/01/24 05:30:13;;;;;;;11.73;7.45;;;;;;;1.31;64.16;96072.53;5028082;28;20030;-77
2024/01/24 05:32:38;;;;;;;13.07;8.07;;;;;;;1.44;64.22;96075.19;5027330;28;20032;-79
2024/01/24 05:35:04;;;;;;;10.48;7.43;;;;;;;1.39;64.06;96072.72;5034819;28;20059;-78
2024/01/24 05:37:30;;;;;;;9.60;6.70;;;;;;;1.38;64.02;96065.72;5036829;28;20396;-78
2024/01/24 05:39:56;;;;;;;12.65;7.97;;;;;;;1.40;63.99;96075.09;5044659;28;20055;-78
2024/01/24 05:42:22;;;;;;;15.13;7.95;;;;;;;1.35;64.11;96072.63;5043417;28;20100;-78
2024/01/24 05:44:48;;;;;;;14.75;8.10;;;;;;;1.34;64.09;96071.06;5027067;28;20037;-77
2024/01/24 05:47:13;;;;;;;10.00;6.95;;;;;;;1.29;64.17;96077.53;5039281;28;20033;-80
2024/01/24 05:49:39;;;;;;;12.10;7.68;;;;;;;1.30;63.98;96075.59;5028933;28;20033;-79
2024/01/24 05:52:05;;;;;;;12.60;6.55;;;;;;;1.27;63.92;96070.91;5027243;28;20120;-79
2024/01/24 05:54:30;;;;;;;10.23;7.85;;;;;;;1.30;63.73;96081.81;5032181;28;20025;-78
2024/01/24 05:56:57;;;;;;;11.55;6.95;;;;;;;1.31;63.88;96074.47;5038096;28;20446;-78
2024/01/24 05:59:22;;;;;;;11.70;6.97;;;;;;;1.34;63.78;96071.06;5027012;28;20569;-78
2024/01/24 06:01:48;;;;;;;11.80;7.60;;;;;;;1.31;63.96;96069.03;5040238;28;20028;-78
2024/01/24 06:04:13;;;;;;;15.30;6.93;;;;;;;1.31;63.83;96082.59;5047372;28;20067;-78
2024/01/24 06:06:39;;;;;;;13.30;7.78;;;;;;;1.30;63.80;96075.59;5046500;28;20033;-77
2024/01/24 06:09:05;;;;;;;12.05;6.22;;;;;;;1.32;63.97;96067.94;5047090;28;20025;-77
2024/01/24 06:11:30;;;;;;;12.73;8.07;;;;;;;1.27;63.98;96076.31;5045827;28;20100;-76
2024/01/24 06:13:56;;;;;;;12.32;7.15;;;;;;;1.37;63.99;96078.47;5031490;28;21249;-75
2024/01/24 06:16:21;;;;;;;14.80;7.45;;;;;;;1.22;63.84;96069.22;5036948;28;20088;-73
2024/01/24 06:18:47;;;;;;;13.05;6.43;;;;;;;1.36;63.89;96074.22;5033816;28;20086;-78
2024/01/24 06:21:13;;;;;;;12.23;8.15;;;;;;;1.38;63.65;96080.06;5035593;28;20056;-75
2024/01/24 06:23:38;;;;;;;11.55;7.80;;;;;;;1.33;63.70;96073.00;5026157;28;20036;-76
2024/01/24 06:26:04;;;;;;;14.77;8.13;;;;;;;1.37;63.56;96075.00;5028715;28;20459;-78
2024/01/24 06:28:29;;;;;;;13.13;7.70;;;;;;;1.31;63.51;96072.53;5034015;28;20034;-75
2024/01/24 06:30:54;;;;;;;14.40;7.38;;;;;;;1.31;63.59;96072.53;5026138;28;20033;-74
2024/01/24 06:33:21;;;;;;;11.70;6.65;;;;;;;1.38;63.43;96068.44;5042989;28;20395;-75
2024/01/24 06:35:47;;;;;;;12.13;7.70;;;;;;;1.44;63.43;96061.63;5046086;28;20530;-74
2024/01/24 06:38:13;;;;;;;13.00;7.88;;;;;;;1.45;63.37;96060.50;5046245;28;20032;-74
2024/01/24 06:40:39;;;;;;;13.98;7.18;;;;;;;1.46;63.42;96064.78;5044400;28;20029;-76
2024/01/24 06:43:04;;;;;;;13.55;7.57;;;;;;;1.51;63.20;96059.88;5046653;28;20495;-75
2024/01/24 06:45:30;;;;;;;12.95;7.65;;;;;;;1.56;63.32;96058.81;5028302;28;20029;-75
2024/01/24 06:47:55;;;;;;;13.30;7.63;;;;;;;1.61;63.19;96053.13;5026522;28;20033;-75
2024/01/24 06:50:20;;;;;;;10.88;7.15;;;;;;;1.65;63.10;96064.84;5025706;28;20033;-75
2024/01/24 06:52:46;;;;;;;9.68;6.82;;;;;;;1.67;63.08;96064.50;5026080;28;20450;-74
2024/01/24 06:55:13;;;;;;;11.40;6.63;;;;;;;1.77;62.87;96056.59;5026243;28;20124;-76
2024/01/24 06:57:39;;;;;;;13.25;7.05;;;;;;;1.81;62.65;96059.41;5025973;28;20049;-75
2024/01/24 07:00:05;;;;;;;10.98;6.30;;;;;;;1.92;62.28;96056.94;5026602;28;20079;-74
2024/01/24 07:02:31;;;;;;;11.48;6.68;;;;;;;1.95;62.11;96059.72;5025112;28;20496;-75
2024/01/24 07:04:57;;;;;;;14.70;6.63;;;;;;;2.03;62.17;96052.53;5026550;28;20026;-76
2024/01/24 07:07:22;;;;;;;15.57;7.05;;;;;;;2.12;61.98;96061.22;5025461;28;20550;-75
2024/01/24 07:09:47;;;;;;;13.05;6.88;;;;;;;2.13;61.92;96049.25;5026006;28;20026;-75
2024/01/24 07:12:13;;;;;;;10.60;5.90;;;;;;;2.13;61.75;96046.53;5025492;28;20095;-75
2024/01/24 07:14:39;;;;;;;11.30;6.90;;;;;;;2.26;61.54;96053.41;5025714;28;20032;-77
2024/01/24 07:17:05;;;;;;;15.20;7.40;;;;;;;2.39;61.41;96065.69;5025987;28;20045;-76
2024/01/24 07:19:30;;;;;;;14.35;7.57;;;;;;;2.39;61.36;96060.25;5024892;28;20030;-74
2024/01/24 07:21:56;;;;;;;10.75;7.28;;;;;;;2.52;61.03;96063.63;5042485;28;20037;-75
2024/01/24 07:24:21;;;;;;;11.32;7.30;;;;;;;2.56;60.90;96067.19;5044700;28;20048;-74
2024/01/24 07:26:47;;;;;;;13.48;7.53;;;;;;;2.60;61.02;96065.34;5045606;28;20162;-75
2024/01/24 07:29:12;;;;;;;13.27;7.95;;;;;;;2.71;60.72;96075.63;5045361;28;20045;-75
2024/01/24 07:31:39;;;;;;;12.15;7.43;;;;;;;2.85;60.30;96071.25;5045237;28;20446;-75
2024/01/24 07:34:05;;;;;;;11.65;6.60;;;;;;;2.99;59.78;96075.41;5045512;28;20029;-74
2024/01/24 07:36:30;;;;;;;10.50;7.60;;;;;;;3.17;59.12;96087.38;5043423;28;20036;-76
2024/01/24 07:38:56;;;;;;;12.15;6.97;;;;;;;3.29;58.61;96095.34;5045159;28;20068;-74
2024/01/24 07:41:23;;;;;;;11.52;6.18;;;;;;;3.43;57.99;96090.16;5029400;28;20108;-75
2024/01/24 07:43:48;;;;;;;11.85;6.18;;;;;;;3.59;57.44;96092.75;5034000;28;20467;-74
2024/01/24 07:46:14;;;;;;;10.90;6.38;;;;;;;3.73;57.37;96090.28;5024425;28;20105;-75
2024/01/24 07:48:39;;;;;;;12.02;6.68;;;;;;;3.89;56.85;96095.56;5041719;28;20100;-75
2024/01/24 07:51:05;;;;;;;18.95;7.40;;;;;;;4.08;56.56;96093.91;5044788;28;20040;-75
2024/01/24 07:53:30;;;;;;;11.35;7.03;;;;;;;4.31;55.79;96094.63;5036189;28;20025;-75
2024/01/24 07:55:56;;;;;;;13.48;7.00;;;;;;;4.55;55.07;96098.03;5040603;28;20033;-75
2024/01/24 07:58:22;;;;;;;12.15;7.38;;;;;;;4.83;54.28;96103.84;5042538;28;20064;-75
2024/01/24 08:00:47;;;;;;;10.25;6.63;;;;;;;5.28;52.87;96100.06;5043994;28;20103;-75
2024/01/24 08:03:13;;;;;;;10.02;6.20;;;;;;;5.67;52.23;96109.75;5024098;28;20049;-75
2024/01/24 08:05:38;;;;;;;11.23;6.72;;;;;;;6.07;51.32;96098.03;5027701;28;20034;-75
2024/01/24 08:08:04;;;;;;;12.40;6.30;;;;;;;6.60;49.20;96095.63;5044551;28;20029;-75
2024/01/24 08:10:29;;;;;;;10.82;6.32;;;;;;;7.30;48.13;96098.22;5044305;28;20035;-75
2024/01/24 08:12:55;;;;;;;9.30;5.90;;;;;;;8.14;46.36;96098.66;5043041;28;20258;-76
2024/01/24 08:15:20;;;;;;;8.60;6.22;;;;;;;9.51;43.10;96108.81;5043823;28;20021;-76
2024/01/24 08:17:46;;;;;;;11.18;6.78;;;;;;;10.95;39.94;96111.91;5039814;28;20156;-76
2024/01/24 08:20:12;;;;;;;8.45;5.32;;;;;;;12.28;36.93;96112.44;5040948;28;20505;-76
2024/01/24 08:22:37;;;;;;;9.25;5.55;;;;;;;13.31;34.85;96112.53;5044932;28;20025;-76
2024/01/24 08:25:03;;;;;;;8.98;5.20;;;;;;;14.27;32.93;96118.63;5041989;28;20087;-76
2024/01/24 08:27:28;;;;;;;9.10;5.70;;;;;;;15.06;31.49;96122.94;5044511;28;20088;-76
2024/01/24 08:29:54;;;;;;;11.18;5.90;;;;;;;15.87;29.91;96124.56;5044389;28;20453;-76
2024/01/24 08:32:19;;;;;;;11.52;6.20;;;;;;;16.48;28.76;96122.66;5043449;28;20109;-76
2024/01/24 08:34:45;;;;;;;10.13;5.80;;;;;;;17.05;28.43;96117.19;5042755;28;20112;-76
2024/01/24 08:37:12;;;;;;;11.07;6.20;;;;;;;17.46;27.14;96114.09;5031449;28;20022;-76
2024/01/24 08:39:38;;;;;;;9.15;5.95;;;;;;;18.18;26.33;96105.78;5046775;28;20033;-77
2024/01/24 08:42:04;;;;;;;7.72;5.80;;;;;;;18.71;25.34;96106.44;5043705;28;20055;-76
2024/01/24 08:44:29;;;;;;;9.20;5.75;;;;;;;19.05;24.95;96093.44;5053905;28;20447;-76
2024/01/24 08:46:55;;;;;;;8.63;5.85;;;;;;;19.40;24.60;96091.09;5046690;28;20043;-76
2024/01/24 08:49:20;;;;;;;10.57;7.47;;;;;;;20.00;23.76;96095.91;5048155;28;20108;-76
2024/01/24 08:51:45;;;;;;;8.65;7.15;;;;;;;20.48;22.88;96095.25;5048636;28;20518;-75
2024/01/24 08:54:11;;;;;;;10.25;6.72;;;;;;;20.58;23.00;96102.31;5048015;28;20096;-76
2024/01/24 08:56:37;;;;;;;9.52;6.65;;;;;;;21.21;22.25;96100.28;5048555;28;20412;-76
2024/01/24 08:59:06;;;;;;;7.68;6.00;;;;;;;21.58;21.63;96086.00;5036845;28;20122;-75
2024/01/24 09:01:31;;;;;;;8.90;5.93;;;;;;;22.00;20.96;96100.44;5029719;28;20087;-76
2024/01/24 09:03:56;;;;;;;13.88;6.72;;;;;;;22.45;20.80;96095.56;5033406;28;20033;-74
2024/01/24 09:06:22;;;;;;;10.40;7.10;;;;;;;22.42;20.91;96102.16;5034714;28;20059;-75
2024/01/24 09:08:54;;;;;;;10.57;7.28;;;;;;;22.93;20.15;96100.78;5033885;28;20493;-76
2024/01/24 09:11:20;;;;;;;11.30;8.32;;;;;;;23.21;20.05;96103.16;5031433;28;20764;-75
2024/01/24 09:13:47;;;;;;;11.05;8.55;;;;;;;23.05;20.09;96101.69;5045878;28;20029;-76
2024/01/24 09:16:12;;;;;;;13.75;9.13;;;;;;;23.39;19.69;96108.47;5043890;28;20021;-76
2024/01/24 09:18:39;;;;;;;11.05;7.82;;;;;;;23.39;19.64;96096.47;5036522;28;20045;-76
2024/01/24 09:21:04;;;;;;;8.85;7.30;;;;;;;23.87;19.32;96099.53;5029292;28;20511;-76
2024/01/24 09:23:30;;;;;;;8.38;7.38;;;;;;;24.17;18.92;96093.63;5033310;28;20017;-76
2024/01/24 09:25:55;;;;;;;10.13;8.25;;;;;;;24.50;18.53;96090.31;5028887;28;20037;-76
2024/01/24 09:28:20;;;;;;;11.25;7.32;;;;;;;24.95;18.33;96094.13;5027458;28;20470;-76
2024/01/24 09:30:46;;;;;;;12.93;8.40;;;;;;;25.19;17.98;96092.97;5027998;28;20039;-76
2024/01/24 09:33:11;;;;;;;11.02;7.80;;;;;;;25.25;17.75;96088.13;5040186;28;20120;-76
2024/01/24 09:35:37;;;;;;;11.52;7.82;;;;;;;25.69;17.27;96087.44;5030475;28;20037;-76
2024/01/24 09:38:04;;;;;;;11.40;7.85;;;;;;;25.60;17.09;96080.03;5026959;28;20032;-75
2024/01/24 09:40:29;;;;;;;9.27;7.50;;;;;;;25.69;17.18;96068.53;5047300;28;20088;-75
2024/01/24 09:42:54;;;;;;;9.05;7.07;;;;;;;25.67;17.18;96064.66;5044094;28;20400;-89
2024/01/24 09:45:22;;;;;;;8.75;7.13;;;;;;;26.07;16.99;96057.03;5036114;28;20017;-75
2024/01/24 09:47:49;;;;;;;9.13;6.75;;;;;;;26.35;16.55;96059.81;5047585;28;20025;-75
2024/01/24 09:50:14;;;;;;;8.68;6.65;;;;;;;26.61;16.45;96057.47;5032220;28;20033;-75
2024/01/24 09:52:41;;;;;;;9.18;6.78;;;;;;;26.33;16.35;96049.06;5026853;28;20047;-75
2024/01/24 09:55:07;;;;;;;9.77;6.90;;;;;;;26.36;16.41;96042.38;5031456;28;20481;-76
2024/01/24 09:57:33;;;;;;;9.52;6.63;;;;;;;26.66;16.11;96031.28;5037520;28;20021;-76
2024/01/24 09:59:59;;;;;;;12.02;7.53;;;;;;;26.98;15.93;96033.75;5039968;28;20033;-76
2024/01/24 10:02:27;;;;;;;12.15;7.40;;;;;;;27.48;15.23;96036.31;5037107;28;20083;-75
2024/01/24 10:04:53;;;;;;;8.77;6.55;;;;;;;27.51;15.36;96026.78;5037828;28;20507;-76
2024/01/24 10:07:19;;;;;;;8.60;6.20;;;;;;;27.47;14.99;96028.34;5045750;28;20060;-76
2024/01/24 10:09:46;;;;;;;10.68;6.97;;;;;;;27.56;14.92;96021.63;5045921;28;20036;-77
2024/01/24 10:12:11;;;;;;;8.80;6.82;;;;;;;27.38;15.00;96025.88;5045202;28;20056;-75
2024/01/24 10:14:40;;;;;;;7.95;6.45;;;;;;;27.42;15.05;96023.53;5046975;28;20104;-76
2024/01/24 10:17:07;;;;;;;10.02;6.97;;;;;;;27.14;15.19;96026.53;5046107;28;20049;-76
2024/01/24 10:19:32;;;;;;;9.80;6.90;;;;;;;27.69;14.83;96021.78;5045152;28;20063;-76
2024/01/24 10:21:57;;;;;;;9.30;6.93;;;;;;;28.11;14.68;95997.06;5046826;28;20064;-77
2024/01/24 10:24:23;;;;;;;8.32;6.05;;;;;;;28.24;14.23;96003.59;5046409;28;20112;-75
2024/01/24 10:26:48;;;;;;;8.82;7.20;;;;;;;28.31;14.42;96005.84;5046923;28;20017;-77
2024/01/24 10:29:14;;;;;;;10.75;8.00;;;;;;;28.50;14.04;96003.09;5046212;28;20404;-76
2024/01/24 10:31:39;;;;;;;11.43;7.45;;;;;;;28.66;13.94;95997.78;5046881;28;20088;-76
2024/01/24 10:34:06;;;;;;;8.25;6.70;;;;;;;28.44;14.11;95998.78;5045770;28;20075;-76
2024/01/24 10:36:32;;;;;;;8.50;6.13;;;;;;;28.68;13.93;95993.13;5045491;28;20055;-77
2024/01/24 10:38:59;;;;;;;8.98;6.72;;;;;;;29.12;13.57;95991.03;5045973;28;20495;-75
2024/01/24 10:41:29;;;;;;;8.38;6.78;;;;;;;29.22;13.58;95989.34;5046262;28;20100;-75
2024/01/24 10:43:56;;;;;;;11.13;6.75;;;;;;;29.47;13.68;95984.34;5046762;28;20037;-75
2024/01/24 10:46:22;;;;;;;8.65;7.40;;;;;;;29.71;13.48;95985.56;5045588;28;20040;-75
2024/01/24 10:48:48;;;;;;;8.82;7.15;;;;;;;30.02;13.25;95973.41;5046539;28;20033;-76
2024/01/24 10:51:14;;;;;;;8.38;6.47;;;;;;;30.35;12.97;95972.06;5045675;28;20022;-75
2024/01/24 10:53:40;;;;;;;10.02;6.75;;;;;;;30.34;12.92;95967.72;5046184;28;20032;-76
2024/01/24 10:56:07;;;;;;;10.85;8.35;;;;;;;30.60;12.92;95974.69;5044545;28;20025;-76
2024/01/24 10:58:34;;;;;;;9.88;7.00;;;;;;;30.89;12.59;95967.16;5045747;28;20033;-76
2024/01/24 11:01:00;;;;;;;7.95;6.45;;;;;;;30.93;12.30;95954.16;5046121;28;20488;-76
2024/01/24 11:03:25;;;;;;;11.57;7.07;;;;;;;31.35;12.30;95950.66;5045384;28;20049;-77
2024/01/24 11:05:55;;;;;;;10.95;7.00;;;;;;;31.43;11.95;95946.59;5045048;28;20016;-77
2024/01/24 11:08:25;;;;;;;9.15;7.47;;;;;;;31.32;12.20;95932.66;5043779;28;20025;-75
2024/01/24 11:10:53;;;;;;;6.95;6.05;;;;;;;31.53;11.76;95932.66;5046156;28;20055;-75
2024/01/24 11:13:19;;;;;;;8.57;6.43;;;;;;;32.36;11.17;95931.84;5045595;28;20024;-76
2024/01/24 11:15:45;;;;;;;8.65;6.20;;;;;;;32.31;11.17;95938.44;5045826;28;20459;-77
2024/01/24 11:18:31;;;;;;;9.68;6.65;;;;;;;32.21;11.38;95941.00;5045366;28;20049;-77
2024/01/24 11:20:58;;;;;;;7.82;5.72;;;;;;;31.95;11.39;95941.22;5045190;28;20249;-77
2024/01/24 11:23:40;;;;;;;8.68;5.85;;;;;;;32.22;11.52;95933.25;5045768;28;20021;-77
2024/01/24 11:26:09;;;;;;;11.68;6.45;;;;;;;30.75;12.32;95932.34;5045006;28;20033;-76